createdAt,value
2017-11-06T00:00:30.680Z,92.74
2017-11-06T00:01:11.320Z,92.74
2017-11-06T00:01:51.933Z,93.22
2017-11-06T00:02:32.636Z,93.22
2017-11-06T00:03:13.250Z,92.74
2017-11-06T00:03:53.898Z,92.55
2017-11-06T00:04:34.550Z,92.74
2017-11-06T00:05:15.172Z,92.55
2017-11-06T00:05:55.842Z,92.27
2017-11-06T00:06:36.382Z,92.55
2017-11-06T00:07:16.962Z,92.36
2017-11-06T00:07:57.572Z,92.32
2017-11-06T00:08:38.181Z,92.36
2017-11-06T00:09:18.789Z,92.36
2017-11-06T00:09:59.422Z,92.55
2017-11-06T00:10:40.004Z,92.46
2017-11-06T00:11:20.665Z,92.55
2017-11-06T00:12:01.271Z,92.36
2017-11-06T00:12:41.826Z,92.65
2017-11-06T00:13:22.440Z,91.7
2017-11-06T00:14:03.077Z,91.89
2017-11-06T00:14:43.691Z,92.08
2017-11-06T00:15:24.300Z,91.7
2017-11-06T00:16:04.899Z,91.89
2017-11-06T00:16:45.482Z,92.18
2017-11-06T00:17:26.108Z,91.99
2017-11-06T00:18:06.696Z,92.18
2017-11-06T00:18:47.332Z,91.75
2017-11-06T00:19:27.920Z,92.32
2017-11-06T00:20:08.534Z,92.65
2017-11-06T00:20:49.123Z,92.55
2017-11-06T00:21:29.753Z,92.51
2017-11-06T00:22:10.360Z,92.27
2017-11-06T00:22:50.948Z,92.27
2017-11-06T00:23:31.576Z,92.18
2017-11-06T00:24:12.154Z,93.03
2017-11-06T00:24:52.779Z,92.74
2017-11-06T00:25:33.359Z,92.65
2017-11-06T00:26:13.940Z,92.84
2017-11-06T00:26:54.523Z,92.27
2017-11-06T00:27:35.142Z,92.55
2017-11-06T00:28:15.729Z,92.36
2017-11-06T00:28:56.324Z,92.27
2017-11-06T00:29:36.970Z,92.32
2017-11-06T00:30:17.612Z,92.36
2017-11-06T00:30:58.177Z,92.36
2017-11-06T00:31:38.782Z,92.55
2017-11-06T00:32:19.368Z,92.46
2017-11-06T00:32:59.942Z,91.99
2017-11-06T00:33:40.554Z,91.7
2017-11-06T00:34:21.197Z,91.79
2017-11-06T00:35:01.785Z,91.89
2017-11-06T00:35:42.399Z,91.89
2017-11-06T00:36:22.983Z,91.89
2017-11-06T00:37:03.599Z,91.6
2017-11-06T00:37:44.197Z,92.27
2017-11-06T00:38:24.808Z,92.27
2017-11-06T00:39:05.405Z,91.79
2017-11-06T00:39:46.004Z,91.89
2017-11-06T00:40:26.659Z,91.99
2017-11-06T00:41:07.249Z,91.99
2017-11-06T00:41:47.889Z,91.89
2017-11-06T00:42:28.444Z,91.99
2017-11-06T00:43:09.021Z,91.7
2017-11-06T00:43:49.613Z,91.99
2017-11-06T00:44:30.209Z,92.18
2017-11-06T00:45:10.778Z,91.89
2017-11-06T00:45:51.358Z,92.18
2017-11-06T00:46:31.951Z,91.89
2017-11-06T00:47:12.562Z,91.89
2017-11-06T00:47:53.174Z,91.99
2017-11-06T00:48:33.793Z,92.08
2017-11-06T00:49:14.380Z,91.89
2017-11-06T00:49:54.971Z,92.08
2017-11-06T00:50:35.582Z,91.89
2017-11-06T00:51:16.194Z,91.99
2017-11-06T00:51:56.845Z,91.6
2017-11-06T00:52:37.437Z,91.89
2017-11-06T00:53:17.996Z,91.7
2017-11-06T00:53:58.610Z,91.7
2017-11-06T00:54:39.187Z,91.65
2017-11-06T00:55:19.766Z,91.41
2017-11-06T00:56:00.353Z,91.65
2017-11-06T00:56:40.921Z,91.99
2017-11-06T00:57:21.510Z,91.7
2017-11-06T00:58:02.121Z,91.89
2017-11-06T00:58:42.746Z,92.18
2017-11-06T00:59:23.294Z,92.13
2017-11-06T01:00:03.890Z,91.31
2017-11-06T01:00:44.490Z,91.17
2017-11-06T01:01:25.062Z,90.99
2017-11-06T01:02:05.644Z,90.99
2017-11-06T01:02:46.203Z,91.27
2017-11-06T01:03:26.792Z,90.99
2017-11-06T01:04:07.446Z,90.7
2017-11-06T01:04:48.032Z,90.99
2017-11-06T01:05:28.634Z,90.8
2017-11-06T01:06:09.235Z,91.17
2017-11-06T01:06:49.830Z,90.89
2017-11-06T01:07:30.441Z,90.99
2017-11-06T01:08:11.036Z,91.17
2017-11-06T01:08:51.654Z,91.27
2017-11-06T01:09:32.266Z,91.46
2017-11-06T01:10:12.878Z,91.17
2017-11-06T01:10:53.467Z,91.17
2017-11-06T01:11:34.083Z,91.46
2017-11-06T01:12:14.711Z,91.46
2017-11-06T01:12:55.277Z,90.8
2017-11-06T01:13:35.887Z,90.51
2017-11-06T01:14:16.468Z,90.8
2017-11-06T01:14:57.086Z,91.08
2017-11-06T01:15:37.656Z,90.99
2017-11-06T01:16:18.248Z,90.99
2017-11-06T01:16:58.843Z,90.7
2017-11-06T01:17:39.431Z,90.99
2017-11-06T01:18:20.018Z,91.08
2017-11-06T01:19:00.616Z,90.99
2017-11-06T01:19:41.210Z,90.99
2017-11-06T01:20:21.761Z,90.99
2017-11-06T01:21:02.357Z,90.42
2017-11-06T01:21:42.960Z,90.8
2017-11-06T01:22:23.513Z,90.32
2017-11-06T01:23:04.077Z,90.61
2017-11-06T01:23:44.647Z,90.32
2017-11-06T01:24:25.245Z,90.7
2017-11-06T01:25:05.839Z,90.51
2017-11-06T01:25:46.419Z,90.51
2017-11-06T01:26:27.001Z,90.42
2017-11-06T01:27:07.600Z,90.99
2017-11-06T01:27:48.189Z,90.7
2017-11-06T01:28:28.809Z,90.32
2017-11-06T01:29:09.411Z,90.99
2017-11-06T01:29:50.017Z,91.08
2017-11-06T01:30:30.621Z,91.17
2017-11-06T01:31:11.193Z,90.7
2017-11-06T01:31:51.821Z,90.22
2017-11-06T01:32:32.408Z,90.22
2017-11-06T01:33:13.032Z,90.7
2017-11-06T01:33:53.630Z,89.94
2017-11-06T01:34:34.235Z,90.51
2017-11-06T01:35:14.892Z,90.89
2017-11-06T01:35:55.530Z,90.42
2017-11-06T01:36:36.135Z,90.61
2017-11-06T01:37:16.742Z,90.61
2017-11-06T01:37:57.337Z,90.61
2017-11-06T01:38:37.949Z,90.51
2017-11-06T01:39:18.553Z,90.32
2017-11-06T01:39:59.151Z,90.7
2017-11-06T01:40:39.745Z,90.8
2017-11-06T01:41:20.321Z,90.42
2017-11-06T01:42:00.892Z,90.7
2017-11-06T01:42:41.498Z,90.22
2017-11-06T01:43:22.092Z,90.03
2017-11-06T01:44:02.674Z,90.03
2017-11-06T01:44:43.266Z,90.22
2017-11-06T01:45:23.839Z,90.51
2017-11-06T01:46:04.403Z,90.61
2017-11-06T01:46:44.970Z,90.61
2017-11-06T01:47:25.589Z,91.08
2017-11-06T01:48:06.130Z,90.8
2017-11-06T01:48:46.768Z,90.32
2017-11-06T01:49:27.346Z,90.51
2017-11-06T01:50:07.936Z,90.61
2017-11-06T01:50:48.502Z,90.51
2017-11-06T01:51:29.085Z,90.22
2017-11-06T01:52:09.665Z,90.22
2017-11-06T01:52:50.243Z,90.13
2017-11-06T01:53:30.837Z,90.32
2017-11-06T01:54:11.449Z,90.51
2017-11-06T01:54:52.022Z,90.13
2017-11-06T01:55:32.605Z,90.32
2017-11-06T01:56:13.204Z,90.7
2017-11-06T01:56:53.796Z,90.51
2017-11-06T01:57:34.390Z,89.56
2017-11-06T01:58:14.953Z,90.42
2017-11-06T01:58:55.527Z,89.75
2017-11-06T01:59:36.101Z,90.13
2017-11-06T02:00:16.718Z,89.94
2017-11-06T02:00:57.283Z,89.94
2017-11-06T02:01:37.876Z,89.75
2017-11-06T02:02:18.483Z,90.03
2017-11-06T02:02:59.049Z,90.03
2017-11-06T02:03:39.630Z,89.56
2017-11-06T02:04:20.246Z,89.94
2017-11-06T02:05:00.833Z,89.56
2017-11-06T02:05:41.414Z,90.13
2017-11-06T02:06:21.995Z,89.65
2017-11-06T02:07:02.578Z,89.65
2017-11-06T02:07:43.161Z,90.32
2017-11-06T02:08:23.788Z,89.65
2017-11-06T02:09:04.337Z,90.22
2017-11-06T02:09:44.937Z,89.18
2017-11-06T02:10:25.507Z,89.27
2017-11-06T02:11:06.080Z,89.47
2017-11-06T02:11:46.720Z,89.47
2017-11-06T02:12:27.299Z,89.84
2017-11-06T02:13:07.887Z,89.94
2017-11-06T02:13:48.477Z,89.65
2017-11-06T02:14:29.051Z,90.13
2017-11-06T02:15:09.660Z,90.03
2017-11-06T02:15:50.264Z,89.94
2017-11-06T02:16:30.851Z,89.94
2017-11-06T02:17:11.442Z,89.56
2017-11-06T02:17:52.006Z,90.03
2017-11-06T02:18:32.626Z,89.84
2017-11-06T02:19:13.215Z,89.94
2017-11-06T02:19:53.781Z,89.94
2017-11-06T02:20:34.349Z,89.75
2017-11-06T02:21:14.920Z,90.32
2017-11-06T02:21:55.529Z,89.94
2017-11-06T02:22:36.091Z,89.84
2017-11-06T02:23:16.654Z,89.94
2017-11-06T02:23:57.228Z,89.65
2017-11-06T02:24:37.828Z,89.94
2017-11-06T02:25:18.458Z,90.22
2017-11-06T02:25:58.999Z,90.03
2017-11-06T02:26:39.593Z,89.75
2017-11-06T02:27:20.203Z,89.56
2017-11-06T02:28:00.793Z,89.94
2017-11-06T02:28:41.394Z,89.75
2017-11-06T02:29:21.958Z,89.18
2017-11-06T02:30:02.549Z,89.27
2017-11-06T02:30:43.176Z,89.84
2017-11-06T02:31:23.789Z,89.84
2017-11-06T02:32:04.415Z,89.37
2017-11-06T02:32:45.026Z,89.18
2017-11-06T02:33:25.614Z,89.84
2017-11-06T02:34:06.223Z,89.37
2017-11-06T02:34:46.783Z,89.75
2017-11-06T02:35:27.362Z,89.94
2017-11-06T02:36:07.958Z,89.84
2017-11-06T02:36:48.549Z,89.37
2017-11-06T02:37:29.141Z,89.37
2017-11-06T02:38:09.754Z,89.08
2017-11-06T02:38:50.327Z,89.27
2017-11-06T02:39:30.914Z,89.27
2017-11-06T02:40:11.500Z,89.27
2017-11-06T02:40:52.070Z,89.37
2017-11-06T02:41:32.652Z,89.27
2017-11-06T02:42:13.247Z,89.27
2017-11-06T02:42:53.826Z,89.56
2017-11-06T02:43:34.403Z,89.37
2017-11-06T02:44:14.977Z,89.27
2017-11-06T02:44:55.611Z,89.18
2017-11-06T02:45:36.191Z,89.47
2017-11-06T02:46:16.777Z,89.37
2017-11-06T02:46:57.358Z,89.27
2017-11-06T02:47:37.972Z,89.27
2017-11-06T02:48:18.540Z,89.18
2017-11-06T02:48:59.113Z,89.27
2017-11-06T02:49:39.683Z,89.47
2017-11-06T02:50:20.251Z,89.47
2017-11-06T02:51:00.853Z,89.27
2017-11-06T02:51:41.490Z,89.37
2017-11-06T02:52:22.085Z,89.65
2017-11-06T02:53:02.656Z,89.37
2017-11-06T02:53:43.244Z,89.47
2017-11-06T02:54:23.836Z,89.27
2017-11-06T02:55:04.445Z,89.65
2017-11-06T02:55:45.041Z,89.08
2017-11-06T02:56:25.612Z,88.89
2017-11-06T02:57:06.215Z,89.56
2017-11-06T02:57:46.798Z,89.37
2017-11-06T02:58:27.423Z,89.37
2017-11-06T02:59:08.000Z,89.27
2017-11-06T02:59:48.614Z,89.37
2017-11-06T03:00:29.292Z,89.65
2017-11-06T03:01:09.860Z,89.27
2017-11-06T03:01:50.431Z,89.75
2017-11-06T03:02:31.031Z,89.08
2017-11-06T03:03:11.602Z,89.65
2017-11-06T03:03:52.207Z,89.37
2017-11-06T03:04:32.785Z,89.37
2017-11-06T03:05:13.365Z,89.37
2017-11-06T03:05:53.939Z,89.37
2017-11-06T03:06:34.499Z,89.37
2017-11-06T03:07:15.111Z,88.79
2017-11-06T03:07:55.690Z,89.08
2017-11-06T03:08:36.299Z,89.08
2017-11-06T03:09:16.858Z,88.89
2017-11-06T03:09:57.460Z,88.99
2017-11-06T03:10:38.070Z,89.08
2017-11-06T03:11:18.666Z,89.08
2017-11-06T03:11:59.274Z,89.08
2017-11-06T03:12:39.864Z,88.6
2017-11-06T03:13:20.433Z,88.79
2017-11-06T03:14:01.003Z,88.79
2017-11-06T03:14:41.607Z,89.18
2017-11-06T03:15:22.236Z,89.08
2017-11-06T03:16:02.904Z,89.08
2017-11-06T03:16:43.454Z,88.7
2017-11-06T03:17:24.051Z,88.7
2017-11-06T03:18:04.630Z,89.18
2017-11-06T03:18:45.211Z,89.27
2017-11-06T03:19:25.776Z,88.51
2017-11-06T03:20:06.368Z,89.27
2017-11-06T03:20:46.945Z,89.08
2017-11-06T03:21:27.530Z,89.18
2017-11-06T03:22:08.136Z,88.42
2017-11-06T03:22:48.707Z,89.27
2017-11-06T03:23:29.294Z,88.6
2017-11-06T03:24:09.899Z,88.6
2017-11-06T03:24:50.513Z,89.18
2017-11-06T03:25:31.088Z,88.6
2017-11-06T03:26:11.694Z,88.89
2017-11-06T03:26:52.320Z,89.56
2017-11-06T03:27:32.866Z,89.42
2017-11-06T03:28:13.472Z,89.08
2017-11-06T03:28:54.059Z,89.75
2017-11-06T03:29:34.673Z,89.94
2017-11-06T03:30:15.241Z,90.22
2017-11-06T03:30:55.810Z,89.84
2017-11-06T03:31:36.380Z,89.75
2017-11-06T03:32:16.973Z,89.47
2017-11-06T03:32:57.583Z,89.56
2017-11-06T03:33:38.152Z,90.22
2017-11-06T03:34:18.741Z,89.75
2017-11-06T03:34:59.338Z,89.56
2017-11-06T03:35:39.938Z,89.75
2017-11-06T03:36:20.541Z,89.56
2017-11-06T03:37:01.137Z,89.94
2017-11-06T03:37:41.705Z,89.75
2017-11-06T03:38:22.286Z,89.94
2017-11-06T03:39:02.852Z,89.84
2017-11-06T03:39:43.430Z,89.94
2017-11-06T03:40:23.995Z,89.47
2017-11-06T03:41:04.618Z,89.37
2017-11-06T03:41:45.260Z,89.37
2017-11-06T03:42:25.834Z,89.47
2017-11-06T03:43:06.406Z,89.56
2017-11-06T03:43:47.015Z,89.56
2017-11-06T03:44:27.613Z,89.47
2017-11-06T03:45:08.188Z,89.75
2017-11-06T03:45:48.753Z,89.27
2017-11-06T03:46:29.325Z,89.18
2017-11-06T03:47:09.940Z,88.99
2017-11-06T03:47:50.539Z,88.7
2017-11-06T03:48:31.163Z,89.65
2017-11-06T03:49:11.751Z,89.56
2017-11-06T03:49:52.344Z,89.18
2017-11-06T03:50:32.907Z,89.27
2017-11-06T03:51:13.470Z,89.27
2017-11-06T03:51:54.057Z,89.27
2017-11-06T03:52:34.660Z,89.56
2017-11-06T03:53:15.235Z,89.27
2017-11-06T03:53:55.845Z,89.47
2017-11-06T03:54:36.428Z,89.18
2017-11-06T03:55:17.042Z,88.99
2017-11-06T03:55:57.605Z,89.18
2017-11-06T03:56:38.185Z,89.18
2017-11-06T03:57:18.757Z,89.18
2017-11-06T03:57:59.352Z,89.08
2017-11-06T03:58:39.926Z,89.27
2017-11-06T03:59:20.496Z,89.27
2017-11-06T04:00:01.127Z,88.99
2017-11-06T04:00:41.709Z,88.79
2017-11-06T04:01:22.273Z,89.18
2017-11-06T04:02:02.861Z,89.27
2017-11-06T04:02:43.421Z,89.08
2017-11-06T04:03:24.024Z,88.6
2017-11-06T04:04:04.621Z,88.79
2017-11-06T04:04:45.205Z,89.27
2017-11-06T04:05:25.819Z,89.27
2017-11-06T04:06:06.417Z,89.08
2017-11-06T04:06:46.998Z,89.18
2017-11-06T04:07:27.595Z,89.18
2017-11-06T04:08:08.192Z,88.79
2017-11-06T04:08:48.771Z,88.6
2017-11-06T04:09:29.341Z,88.7
2017-11-06T04:10:09.916Z,88.7
2017-11-06T04:10:50.497Z,88.79
2017-11-06T04:11:31.072Z,88.32
2017-11-06T04:12:11.645Z,88.42
2017-11-06T04:12:52.229Z,88.51
2017-11-06T04:13:32.822Z,88.32
2017-11-06T04:14:13.398Z,88.6
2017-11-06T04:14:53.976Z,88.7
2017-11-06T04:15:34.557Z,88.42
2017-11-06T04:16:15.147Z,87.9
2017-11-06T04:16:55.726Z,88.13
2017-11-06T04:17:36.382Z,88.42
2017-11-06T04:18:16.930Z,87.94
2017-11-06T04:18:57.533Z,88.32
2017-11-06T04:19:38.112Z,88.42
2017-11-06T04:20:18.692Z,88.13
2017-11-06T04:20:59.278Z,87.94
2017-11-06T04:21:39.877Z,88.32
2017-11-06T04:22:20.445Z,87.94
2017-11-06T04:23:01.026Z,88.13
2017-11-06T04:23:41.592Z,87.99
2017-11-06T04:24:22.178Z,88.37
2017-11-06T04:25:02.762Z,87.94
2017-11-06T04:25:43.343Z,88.23
2017-11-06T04:26:23.932Z,88.42
2017-11-06T04:27:04.532Z,88.09
2017-11-06T04:27:45.139Z,88.32
2017-11-06T04:28:25.714Z,88.09
2017-11-06T04:29:06.289Z,88.04
2017-11-06T04:29:46.880Z,88.09
2017-11-06T04:30:27.483Z,87.8
2017-11-06T04:31:08.071Z,87.85
2017-11-06T04:31:48.644Z,88.13
2017-11-06T04:32:29.283Z,87.52
2017-11-06T04:33:09.850Z,87.75
2017-11-06T04:33:50.451Z,87.46
2017-11-06T04:34:31.072Z,87.75
2017-11-06T04:35:11.675Z,87.52
2017-11-06T04:35:52.262Z,87.85
2017-11-06T04:36:32.886Z,87.75
2017-11-06T04:37:13.442Z,87.46
2017-11-06T04:37:54.017Z,87.46
2017-11-06T04:38:34.578Z,87.85
2017-11-06T04:39:15.162Z,87.37
2017-11-06T04:39:55.747Z,87.46
2017-11-06T04:40:36.324Z,87.08
2017-11-06T04:41:16.885Z,87.23
2017-11-06T04:41:57.488Z,87.04
2017-11-06T04:42:38.080Z,87.08
2017-11-06T04:43:18.641Z,87.13
2017-11-06T04:43:59.215Z,87.32
2017-11-06T04:44:39.786Z,87.13
2017-11-06T04:45:20.400Z,87.42
2017-11-06T04:46:00.983Z,87.52
2017-11-06T04:46:41.583Z,87.46
2017-11-06T04:47:22.187Z,87.23
2017-11-06T04:48:02.803Z,87.71
2017-11-06T04:48:43.333Z,87.8
2017-11-06T04:49:23.953Z,87.8
2017-11-06T04:50:04.581Z,87.9
2017-11-06T04:50:45.191Z,87.85
2017-11-06T04:51:25.791Z,87.61
2017-11-06T04:52:06.405Z,87.32
2017-11-06T04:52:46.978Z,87.23
2017-11-06T04:53:27.635Z,86.94
2017-11-06T04:54:08.309Z,87.04
2017-11-06T04:54:48.836Z,87.52
2017-11-06T04:55:29.471Z,87.13
2017-11-06T04:56:10.033Z,87.04
2017-11-06T04:56:50.635Z,87.13
2017-11-06T04:57:31.243Z,87.04
2017-11-06T04:58:11.890Z,86.94
2017-11-06T04:58:52.459Z,86.94
2017-11-06T04:59:33.056Z,87.13
2017-11-06T05:00:13.655Z,87.52
2017-11-06T05:00:54.384Z,87.13
2017-11-06T05:01:34.960Z,87.32
2017-11-06T05:02:15.583Z,87.42
2017-11-06T05:02:56.291Z,87.52
2017-11-06T05:03:36.877Z,87.23
2017-11-06T05:04:17.454Z,87.13
2017-11-06T05:04:58.046Z,87.42
2017-11-06T05:05:38.667Z,87.23
2017-11-06T05:06:19.250Z,87.42
2017-11-06T05:06:59.845Z,87.23
2017-11-06T05:07:40.447Z,87.23
2017-11-06T05:08:21.045Z,87.04
2017-11-06T05:09:01.634Z,87.52
2017-11-06T05:09:42.202Z,87.23
2017-11-06T05:10:22.776Z,87.71
2017-11-06T05:11:03.352Z,87.52
2017-11-06T05:11:43.958Z,87.8
2017-11-06T05:12:24.530Z,87.32
2017-11-06T05:13:05.121Z,87.23
2017-11-06T05:13:45.677Z,87.23
2017-11-06T05:14:26.249Z,87.32
2017-11-06T05:15:06.805Z,87.13
2017-11-06T05:15:47.396Z,87.23
2017-11-06T05:16:27.982Z,87.32
2017-11-06T05:17:08.556Z,87.23
2017-11-06T05:17:49.148Z,87.23
2017-11-06T05:18:29.705Z,87.23
2017-11-06T05:19:10.327Z,86.94
2017-11-06T05:19:50.908Z,87.32
2017-11-06T05:20:31.490Z,87.13
2017-11-06T05:21:12.069Z,87.04
2017-11-06T05:21:52.641Z,87.23
2017-11-06T05:22:33.223Z,87.04
2017-11-06T05:23:13.793Z,87.52
2017-11-06T05:23:54.380Z,87.23
2017-11-06T05:24:34.952Z,87.04
2017-11-06T05:25:15.538Z,87.04
2017-11-06T05:25:56.143Z,87.23
2017-11-06T05:26:36.823Z,87.13
2017-11-06T05:27:17.340Z,87.04
2017-11-06T05:27:57.950Z,87.32
2017-11-06T05:28:38.544Z,87.32
2017-11-06T05:29:19.132Z,87.23
2017-11-06T05:29:59.710Z,87.23
2017-11-06T05:30:40.307Z,87.04
2017-11-06T05:31:20.882Z,87.23
2017-11-06T05:32:01.499Z,87.13
2017-11-06T05:32:42.091Z,87.13
2017-11-06T05:33:22.729Z,87.13
2017-11-06T05:34:03.378Z,87.13
2017-11-06T05:34:43.957Z,87.32
2017-11-06T05:35:24.546Z,87.32
2017-11-06T05:36:05.178Z,87.13
2017-11-06T05:36:45.763Z,86.94
2017-11-06T05:37:26.378Z,87.23
2017-11-06T05:38:06.971Z,86.94
2017-11-06T05:38:47.546Z,87.13
2017-11-06T05:39:28.103Z,87.32
2017-11-06T05:40:08.685Z,87.42
2017-11-06T05:40:49.318Z,87.23
2017-11-06T05:41:29.929Z,87.52
2017-11-06T05:42:10.557Z,87.23
2017-11-06T05:42:51.171Z,87.61
2017-11-06T05:43:31.734Z,87.52
2017-11-06T05:44:12.337Z,87.8
2017-11-06T05:44:52.968Z,87.9
2017-11-06T05:45:33.583Z,87.61
2017-11-06T05:46:14.199Z,87.61
2017-11-06T05:46:54.823Z,87.52
2017-11-06T05:47:35.434Z,88.09
2017-11-06T05:48:15.988Z,87.71
2017-11-06T05:48:56.556Z,87.42
2017-11-06T05:49:37.162Z,87.23
2017-11-06T05:50:17.750Z,87.42
2017-11-06T05:50:58.338Z,87.04
2017-11-06T05:51:38.950Z,87.13
2017-11-06T05:52:19.523Z,87.13
2017-11-06T05:53:00.126Z,87.13
2017-11-06T05:53:40.722Z,86.94
2017-11-06T05:54:21.316Z,87.23
2017-11-06T05:55:01.936Z,87.32
2017-11-06T05:55:42.494Z,87.13
2017-11-06T05:56:23.072Z,87.32
2017-11-06T05:57:03.694Z,87.13
2017-11-06T05:57:44.248Z,87.13
2017-11-06T05:58:24.846Z,87.42
2017-11-06T05:59:05.478Z,87.23
2017-11-06T05:59:46.052Z,87.04
2017-11-06T06:00:26.647Z,86.85
2017-11-06T06:01:07.256Z,86.99
2017-11-06T06:01:47.795Z,86.61
2017-11-06T06:02:28.372Z,87.13
2017-11-06T06:03:08.998Z,86.99
2017-11-06T06:03:49.544Z,86.99
2017-11-06T06:04:30.129Z,87.09
2017-11-06T06:05:10.707Z,87.04
2017-11-06T06:05:51.297Z,86.76
2017-11-06T06:06:31.979Z,86.61
2017-11-06T06:07:12.715Z,86.76
2017-11-06T06:07:53.306Z,87.19
2017-11-06T06:08:33.883Z,86.99
2017-11-06T06:09:14.478Z,87.23
2017-11-06T06:09:55.118Z,86.8
2017-11-06T06:10:35.822Z,87.32
2017-11-06T06:11:16.493Z,87.09
2017-11-06T06:11:57.283Z,87.38
2017-11-06T06:12:37.886Z,87.66
2017-11-06T06:13:18.482Z,87.71
2017-11-06T06:13:59.066Z,87.52
2017-11-06T06:14:39.635Z,87.19
2017-11-06T06:15:20.209Z,87.42
2017-11-06T06:16:00.806Z,87.28
2017-11-06T06:16:41.394Z,87.47
2017-11-06T06:17:21.970Z,87.76
2017-11-06T06:18:02.555Z,87.42
2017-11-06T06:18:43.205Z,87.66
2017-11-06T06:19:23.796Z,87.71
2017-11-06T06:20:04.406Z,87.52
2017-11-06T06:20:45.016Z,87.76
2017-11-06T06:21:25.617Z,87.47
2017-11-06T06:22:06.278Z,87.47
2017-11-06T06:22:46.917Z,88.04
2017-11-06T06:23:27.495Z,88.52
2017-11-06T06:24:08.169Z,89.18
2017-11-06T06:24:48.744Z,88.85
2017-11-06T06:25:29.353Z,89.28
2017-11-06T06:26:09.941Z,91.94
2017-11-06T06:26:50.533Z,94.08
2017-11-06T06:27:31.118Z,94.65
2017-11-06T06:28:11.700Z,95.03
2017-11-06T06:29:59.552Z,90.32
2017-11-06T06:30:40.125Z,90.51
2017-11-06T06:31:20.758Z,90.22
2017-11-06T06:32:01.327Z,88.51
2017-11-06T06:32:41.901Z,90.32
2017-11-06T06:33:22.480Z,92.51
2017-11-06T06:34:03.083Z,92.6
2017-11-06T06:34:43.687Z,92.03
2017-11-06T06:35:24.299Z,91.56
2017-11-06T06:36:04.878Z,91.84
2017-11-06T06:36:45.436Z,91.41
2017-11-06T06:37:26.008Z,90.36
2017-11-06T06:38:06.606Z,90.46
2017-11-06T06:38:47.344Z,90.84
2017-11-06T06:39:27.870Z,90.56
2017-11-06T06:40:08.463Z,89.7
2017-11-06T06:40:49.046Z,88.12
2017-11-06T06:41:29.652Z,86.98
2017-11-06T06:42:10.242Z,85.27
2017-11-06T06:42:50.818Z,85.17
2017-11-06T06:43:31.419Z,86.22
2017-11-06T06:44:11.983Z,86.6
2017-11-06T06:44:52.555Z,86.6
2017-11-06T06:45:33.145Z,84.79
2017-11-06T06:46:13.738Z,81.46
2017-11-06T06:46:54.325Z,80.41
2017-11-06T06:47:34.920Z,80.31
2017-11-06T06:48:15.527Z,80.41
2017-11-06T06:48:56.116Z,80.5
2017-11-06T06:49:36.685Z,82.65
2017-11-06T06:50:17.271Z,83.03
2017-11-06T06:50:57.856Z,83.13
2017-11-06T06:51:38.448Z,82.18
2017-11-06T06:52:19.097Z,81.79
2017-11-06T06:52:59.693Z,81.32
2017-11-06T06:53:40.339Z,80.27
2017-11-06T06:54:20.990Z,80.65
2017-11-06T06:55:01.611Z,80.65
2017-11-06T06:55:42.221Z,81.03
2017-11-06T06:56:22.911Z,81.51
2017-11-06T06:57:03.797Z,81.79
2017-11-06T06:57:44.378Z,81.66
2017-11-06T06:58:24.979Z,81.76
2017-11-06T06:59:05.567Z,82.04
2017-11-06T06:59:46.219Z,82.51
2017-11-06T07:00:27.571Z,82.04
2017-11-06T07:01:08.177Z,82.7
2017-11-06T07:01:48.793Z,82.61
2017-11-06T07:02:29.411Z,82.51
2017-11-06T07:03:09.988Z,82.99
2017-11-06T07:03:50.563Z,82.42
2017-11-06T07:04:31.172Z,82.8
2017-11-06T07:05:11.757Z,82.95
2017-11-06T07:05:52.340Z,83.33
2017-11-06T07:06:32.945Z,83.47
2017-11-06T07:07:13.496Z,82.95
2017-11-06T07:07:54.078Z,83.04
2017-11-06T07:08:34.673Z,83.71
2017-11-06T07:09:15.262Z,83.42
2017-11-06T07:09:55.839Z,83.62
2017-11-06T07:10:37.172Z,83.81
2017-11-06T07:11:17.844Z,84.09
2017-11-06T07:11:58.467Z,84.19
2017-11-06T07:12:39.476Z,84
2017-11-06T07:13:19.955Z,84.47
2017-11-06T07:14:00.553Z,84.47
2017-11-06T07:14:41.147Z,84.28
2017-11-06T07:15:23.160Z,84.95
2017-11-06T07:16:04.755Z,84.76
2017-11-06T07:16:46.003Z,84.95
2017-11-06T07:17:26.700Z,84.85
2017-11-06T07:18:07.285Z,84.95
2017-11-06T07:18:47.878Z,85.24
2017-11-06T07:19:28.584Z,85.24
2017-11-06T07:20:09.161Z,85.42
2017-11-06T07:20:49.753Z,85.04
2017-11-06T07:21:30.438Z,84.95
2017-11-06T07:22:11.039Z,84.85
2017-11-06T07:22:51.625Z,85.14
2017-11-06T07:23:32.213Z,85.24
2017-11-06T07:24:12.819Z,85.24
2017-11-06T07:24:53.522Z,85.61
2017-11-06T07:25:34.119Z,85.61
2017-11-06T07:26:14.692Z,85.52
2017-11-06T07:26:55.433Z,85.42
2017-11-06T07:27:35.981Z,85.8
2017-11-06T07:28:16.732Z,85.71
2017-11-06T07:28:57.320Z,85.42
2017-11-06T07:29:37.978Z,85.33
2017-11-06T07:30:18.804Z,85.42
2017-11-06T07:30:59.384Z,85.71
2017-11-06T07:31:40.025Z,85.33
2017-11-06T07:32:20.678Z,85.71
2017-11-06T07:33:01.312Z,85.61
2017-11-06T07:33:41.974Z,85.52
2017-11-06T07:34:22.571Z,85.33
2017-11-06T07:35:03.199Z,85.71
2017-11-06T07:35:43.830Z,85.71
2017-11-06T07:36:24.426Z,85.9
2017-11-06T07:37:05.066Z,85.71
2017-11-06T07:37:45.724Z,85.42
2017-11-06T07:38:26.364Z,85.8
2017-11-06T07:39:07.000Z,85.71
2017-11-06T07:39:47.697Z,85.52
2017-11-06T07:40:28.251Z,85.42
2017-11-06T07:41:08.936Z,85.61
2017-11-06T07:41:49.588Z,85.71
2017-11-06T07:42:30.280Z,85.71
2017-11-06T07:43:10.839Z,85.71
2017-11-06T07:43:51.481Z,85.52
2017-11-06T07:44:32.135Z,85.33
2017-11-06T07:45:12.802Z,85.33
2017-11-06T07:45:53.507Z,85.33
2017-11-06T07:46:34.104Z,85.33
2017-11-06T07:47:14.745Z,85.42
2017-11-06T07:47:55.356Z,85.61
2017-11-06T07:48:36.015Z,85.42
2017-11-06T07:49:16.596Z,85.61
2017-11-06T07:49:57.169Z,85.42
2017-11-06T07:50:37.751Z,85.71
2017-11-06T07:51:18.322Z,85.33
2017-11-06T07:51:58.942Z,85.52
2017-11-06T07:52:39.655Z,85.52
2017-11-06T07:53:20.221Z,85.8
2017-11-06T07:54:00.904Z,85.14
2017-11-06T07:54:41.483Z,85.24
2017-11-06T07:55:22.182Z,85.24
2017-11-06T07:56:02.836Z,85.14
2017-11-06T07:56:43.628Z,84.95
2017-11-06T07:57:24.271Z,85.24
2017-11-06T07:58:04.879Z,85.14
2017-11-06T07:58:45.469Z,84.76
2017-11-06T07:59:26.126Z,84.66
2017-11-06T08:00:06.754Z,84.95
2017-11-06T08:00:47.378Z,84.47
2017-11-06T08:01:28.007Z,84.56
2017-11-06T08:02:08.648Z,84.56
2017-11-06T08:02:49.234Z,84.56
2017-11-06T08:03:29.838Z,84.47
2017-11-06T08:04:10.480Z,84.56
2017-11-06T08:04:51.102Z,83.9
2017-11-06T08:05:31.705Z,84.33
2017-11-06T08:06:12.318Z,84
2017-11-06T08:06:52.907Z,84.04
2017-11-06T08:07:33.519Z,84
2017-11-06T08:08:14.171Z,83.94
2017-11-06T08:08:54.788Z,83.56
2017-11-06T08:09:35.429Z,83.23
2017-11-06T08:10:16.015Z,83.33
2017-11-06T08:10:56.637Z,83.23
2017-11-06T08:11:37.244Z,83.62
2017-11-06T08:12:17.831Z,83.71
2017-11-06T08:12:58.489Z,84.09
2017-11-06T08:13:39.094Z,83.71
2017-11-06T08:14:19.768Z,83.85
2017-11-06T08:15:00.405Z,83.85
2017-11-06T08:15:41.007Z,83.52
2017-11-06T08:16:21.642Z,83.47
2017-11-06T08:17:02.309Z,83.56
2017-11-06T08:17:42.913Z,83.62
2017-11-06T08:18:23.496Z,84.13
2017-11-06T08:19:04.132Z,84.61
2017-11-06T08:19:44.720Z,84.47
2017-11-06T08:20:25.365Z,84.38
2017-11-06T08:21:05.991Z,84.56
2017-11-06T08:21:46.584Z,84.56
2017-11-06T08:22:27.236Z,84.47
2017-11-06T08:23:07.792Z,84.56
2017-11-06T08:23:48.406Z,84.47
2017-11-06T08:24:29.069Z,84.38
2017-11-06T08:25:09.632Z,84.47
2017-11-06T08:25:50.236Z,84.76
2017-11-06T08:26:30.826Z,84.76
2017-11-06T08:27:11.475Z,84.52
2017-11-06T08:27:52.144Z,84.09
2017-11-06T08:28:32.800Z,84.38
2017-11-06T08:29:13.411Z,84.38
2017-11-06T08:29:54.091Z,84.19
2017-11-06T08:30:34.687Z,83.94
2017-11-06T08:31:15.327Z,84.42
2017-11-06T08:31:55.970Z,84.33
2017-11-06T08:32:36.626Z,84
2017-11-06T08:33:17.236Z,84.56
2017-11-06T08:33:57.897Z,84.19
2017-11-06T08:34:38.528Z,83.81
2017-11-06T08:35:19.178Z,83.81
2017-11-06T08:35:59.807Z,84.09
2017-11-06T08:36:40.461Z,84.38
2017-11-06T08:37:21.106Z,84.47
2017-11-06T08:38:01.745Z,84.42
2017-11-06T08:38:42.447Z,84.38
2017-11-06T08:39:23.142Z,84.47
2017-11-06T08:40:03.773Z,84.28
2017-11-06T08:40:44.470Z,84.47
2017-11-06T08:41:25.164Z,84.47
2017-11-06T08:42:05.871Z,84.38
2017-11-06T08:42:46.524Z,84.38
2017-11-06T08:43:27.168Z,84.85
2017-11-06T08:44:07.777Z,84.61
2017-11-06T08:44:48.470Z,84.76
2017-11-06T08:45:29.063Z,85.14